Home   Weather   Nepal   Pokhara   Past weeks
Flag for Nepal

Past Weather in Pokhara, Nepal — Yesterday and Last 2 Weeks

Currently: 59 °F. Partly sunny. (Weather station: Kathmandu Airport, Nepal). See more current weather

Past Weather in Pokhara — Graph

°F

Pokhara Temperature Yesterday

Maximum temperature yesterday: 68 °F (at 12:45 pm)
Minimum temperature yesterday: 43 °F (at 6:45 am)
Average temperature yesterday: 56 °F

High & Low Weather Summary for the Past Weeks

 TemperatureHumidityPressure
High72 °F (Feb 13, 1:45 pm)100% (Feb 23, 4:45 am)30.30 "Hg (Feb 23, 4:45 am)
Low41 °F (Feb 23, 4:45 am)17% (Feb 13, 12:45 pm)29.89 "Hg (Feb 21, 2:45 pm)
Average56 °F61%30.11 "Hg
* Reported Feb 12 9:45 am — Feb 27 9:45 am, Pokhara. Weather by CustomWeather, © 2024

Note: Actual official high and low records may vary slightly from our data, if they occured in-between our weather recording intervals... More about our weather records

Pokhara Weather History for the Previous 24 Hours

Scroll right to see more
 ConditionsComfort  
Time TempWeatherWind HumidityBarometerVisibility
9:45 am
Tue, Feb 27
59 °FPartly sunny.3 mph45%30.21 "Hg3 mi
9:15 am57 °FBroken clouds.2 mph51%30.21 "Hg3 mi
8:45 am54 °FPartly sunny.No wind58%30.21 "Hg2 mi
7:45 am48 °FFog.3 mph71%30.18 "Hg3 mi
7:15 am45 °FFog.2 mph81%30.15 "Hg2 mi
6:45 am45 °FFog.5 mph76%30.15 "Hg3 mi
5:15 am46 °FPassing clouds.2 mph76%30.15 "Hg4 mi
4:45 am46 °FPassing clouds.2 mph76%30.12 "Hg4 mi
4:15 am46 °FPassing clouds.5 mph71%30.12 "Hg4 mi
3:45 am48 °FPassing clouds.3 mph71%30.12 "Hg4 mi
3:15 am48 °FPassing clouds.No wind71%30.12 "Hg4 mi
2:45 am48 °FPassing clouds.No wind71%30.12 "Hg4 mi
2:15 am48 °FPassing clouds.5 mph71%30.15 "Hg5 mi
1:45 am48 °FPassing clouds.3 mph71%30.15 "Hg5 mi
1:15 am50 °FPassing clouds.3 mph67%30.15 "Hg5 mi
12:45 am50 °FPassing clouds.2 mph62%30.15 "Hg5 mi
12:15 am50 °FPassing clouds.2 mph62%30.15 "Hg5 mi
11:45 pm
Mon, Feb 26
52 °FPassing clouds.3 mph62%30.15 "Hg5 mi
11:15 pm52 °FPassing clouds.3 mph62%30.15 "Hg5 mi
10:45 pm54 °FPassing clouds.3 mph63%30.15 "Hg5 mi
10:15 pm55 °FPassing clouds.2 mph59%30.15 "Hg5 mi
9:45 pm55 °FPassing clouds.5 mph55%30.15 "Hg5 mi
9:15 pm57 °FPassing clouds.6 mph51%30.15 "Hg5 mi
8:45 pm59 °FPassing clouds.7 mph45%30.15 "Hg5 mi
8:15 pm59 °FPassing clouds.5 mph45%30.15 "Hg5 mi
7:45 pm59 °FPassing clouds.6 mph48%30.15 "Hg5 mi
7:15 pm59 °FPassing clouds.8 mph48%30.15 "Hg5 mi
6:45 pm59 °FPassing clouds.8 mph48%30.12 "HgN/A
6:15 pm61 °FPartly sunny.8 mph42%30.12 "HgN/A
5:45 pm63 °FPartly sunny.8 mph34%30.12 "HgN/A
5:15 pm64 °FPartly sunny.9 mph30%30.09 "HgN/A
4:45 pm64 °FPartly sunny.10 mph28%30.09 "HgN/A
4:15 pm66 °FPartly sunny.10 mph30%30.09 "HgN/A
3:45 pm66 °FPartly sunny.9 mph28%30.09 "HgN/A
3:15 pm68 °FPartly sunny.8 mph24%30.12 "HgN/A
2:45 pm66 °FPartly sunny.12 mph30%30.12 "HgN/A
2:15 pm68 °FPartly sunny.12 mph28%30.12 "HgN/A
1:45 pm66 °FPartly sunny.12 mph28%30.12 "HgN/A
1:15 pm68 °FPartly sunny.7 mph24%30.15 "HgN/A
12:45 pm68 °FPartly sunny.5 mph24%30.15 "HgN/A
12:15 pm66 °FPartly sunny.5 mph22%30.18 "Hg5 mi
11:45 am64 °FPartly sunny.5 mph28%30.18 "Hg4 mi
11:15 am63 °FPartly sunny.3 mph34%30.21 "Hg4 mi
10:45 am61 °FPartly sunny.2 mph42%30.21 "Hg3 mi
10:15 am57 °FPartly sunny.2 mph48%30.21 "Hg3 mi
Weather by CustomWeather, © 2024

See weather overview